sensor_id;sensor_type;location;lat;lon;timestamp;P1;durP1;ratioP1;P2;durP2;ratioP2
25301;SDS011;13243;50.888;4.724;2024-03-08T00:02:47;32.00;;;17.42;;
25301;SDS011;13243;50.888;4.724;2024-03-08T00:07:52;35.50;;;18.98;;
25301;SDS011;13243;50.888;4.724;2024-03-08T00:12:54;36.20;;;19.25;;
25301;SDS011;13243;50.888;4.724;2024-03-08T00:17:56;34.45;;;19.13;;
25301;SDS011;13243;50.888;4.724;2024-03-08T00:22:58;33.42;;;18.23;;
25301;SDS011;13243;50.888;4.724;2024-03-08T00:28:01;32.70;;;19.13;;
25301;SDS011;13243;50.888;4.724;2024-03-08T00:33:03;38.22;;;20.55;;
25301;SDS011;13243;50.888;4.724;2024-03-08T00:38:05;37.90;;;20.02;;
25301;SDS011;13243;50.888;4.724;2024-03-08T00:43:07;37.55;;;19.88;;
25301;SDS011;13243;50.888;4.724;2024-03-08T00:48:09;41.38;;;20.95;;
25301;SDS011;13243;50.888;4.724;2024-03-08T00:53:12;36.97;;;19.85;;
25301;SDS011;13243;50.888;4.724;2024-03-08T00:58:14;34.33;;;20.60;;
25301;SDS011;13243;50.888;4.724;2024-03-08T01:03:17;36.80;;;20.08;;
25301;SDS011;13243;50.888;4.724;2024-03-08T01:08:18;34.67;;;19.40;;
25301;SDS011;13243;50.888;4.724;2024-03-08T01:13:20;36.50;;;20.60;;
25301;SDS011;13243;50.888;4.724;2024-03-08T01:18:22;33.90;;;20.73;;
25301;SDS011;13243;50.888;4.724;2024-03-08T01:23:24;37.60;;;20.60;;
25301;SDS011;13243;50.888;4.724;2024-03-08T01:28:26;37.90;;;20.70;;
25301;SDS011;13243;50.888;4.724;2024-03-08T01:33:28;38.17;;;22.95;;
25301;SDS011;13243;50.888;4.724;2024-03-08T01:38:31;32.22;;;20.15;;
25301;SDS011;13243;50.888;4.724;2024-03-08T01:43:33;41.03;;;22.02;;
25301;SDS011;13243;50.888;4.724;2024-03-08T01:48:35;35.42;;;22.05;;
25301;SDS011;13243;50.888;4.724;2024-03-08T01:53:38;39.50;;;22.48;;
25301;SDS011;13243;50.888;4.724;2024-03-08T01:58:41;33.65;;;21.67;;
25301;SDS011;13243;50.888;4.724;2024-03-08T02:03:49;37.50;;;23.38;;
25301;SDS011;13243;50.888;4.724;2024-03-08T02:08:51;38.58;;;23.05;;
25301;SDS011;13243;50.888;4.724;2024-03-08T02:13:53;37.58;;;22.83;;
25301;SDS011;13243;50.888;4.724;2024-03-08T02:18:56;36.10;;;22.40;;
25301;SDS011;13243;50.888;4.724;2024-03-08T02:23:58;35.38;;;23.20;;
25301;SDS011;13243;50.888;4.724;2024-03-08T02:29:01;36.35;;;22.73;;
25301;SDS011;13243;50.888;4.724;2024-03-08T02:34:03;36.20;;;23.95;;
25301;SDS011;13243;50.888;4.724;2024-03-08T02:39:06;39.63;;;24.10;;
25301;SDS011;13243;50.888;4.724;2024-03-08T02:44:08;38.08;;;24.35;;
25301;SDS011;13243;50.888;4.724;2024-03-08T02:49:10;34.30;;;24.08;;
25301;SDS011;13243;50.888;4.724;2024-03-08T02:54:12;35.88;;;23.92;;
25301;SDS011;13243;50.888;4.724;2024-03-08T02:59:14;39.17;;;25.23;;
25301;SDS011;13243;50.888;4.724;2024-03-08T03:04:18;42.55;;;24.98;;
25301;SDS011;13243;50.888;4.724;2024-03-08T03:09:20;40.03;;;24.75;;
25301;SDS011;13243;50.888;4.724;2024-03-08T03:14:28;39.58;;;24.60;;
25301;SDS011;13243;50.888;4.724;2024-03-08T03:19:30;37.85;;;25.05;;
25301;SDS011;13243;50.888;4.724;2024-03-08T03:24:32;38.95;;;25.73;;
25301;SDS011;13243;50.888;4.724;2024-03-08T03:29:34;38.25;;;25.80;;
25301;SDS011;13243;50.888;4.724;2024-03-08T03:34:36;40.95;;;25.77;;
25301;SDS011;13243;50.888;4.724;2024-03-08T03:39:39;38.75;;;25.70;;
25301;SDS011;13243;50.888;4.724;2024-03-08T03:44:50;37.78;;;25.38;;
25301;SDS011;13243;50.888;4.724;2024-03-08T03:49:52;41.50;;;26.00;;
25301;SDS011;13243;50.888;4.724;2024-03-08T03:54:55;36.55;;;24.65;;
25301;SDS011;13243;50.888;4.724;2024-03-08T03:59:58;43.97;;;26.05;;
25301;SDS011;13243;50.888;4.724;2024-03-08T04:05:00;49.53;;;26.95;;
25301;SDS011;13243;50.888;4.724;2024-03-08T04:10:02;46.05;;;25.85;;
25301;SDS011;13243;50.888;4.724;2024-03-08T04:15:05;39.75;;;25.73;;
25301;SDS011;13243;50.888;4.724;2024-03-08T04:20:12;41.28;;;25.27;;
25301;SDS011;13243;50.888;4.724;2024-03-08T04:25:16;37.58;;;25.55;;
25301;SDS011;13243;50.888;4.724;2024-03-08T04:30:18;40.95;;;25.77;;
25301;SDS011;13243;50.888;4.724;2024-03-08T04:35:22;40.80;;;25.92;;
25301;SDS011;13243;50.888;4.724;2024-03-08T04:40:25;40.67;;;25.23;;
25301;SDS011;13243;50.888;4.724;2024-03-08T04:45:27;41.35;;;25.27;;
25301;SDS011;13243;50.888;4.724;2024-03-08T04:50:29;39.20;;;25.73;;
25301;SDS011;13243;50.888;4.724;2024-03-08T04:55:31;43.08;;;25.58;;
25301;SDS011;13243;50.888;4.724;2024-03-08T05:00:33;39.53;;;25.48;;
25301;SDS011;13243;50.888;4.724;2024-03-08T05:05:35;41.97;;;25.67;;
25301;SDS011;13243;50.888;4.724;2024-03-08T05:10:37;41.60;;;25.95;;
25301;SDS011;13243;50.888;4.724;2024-03-08T05:15:39;42.75;;;26.00;;
25301;SDS011;13243;50.888;4.724;2024-03-08T05:20:41;43.10;;;25.45;;
25301;SDS011;13243;50.888;4.724;2024-03-08T05:25:43;43.67;;;26.63;;
25301;SDS011;13243;50.888;4.724;2024-03-08T05:30:45;44.70;;;27.02;;
25301;SDS011;13243;50.888;4.724;2024-03-08T05:35:47;41.97;;;25.63;;
25301;SDS011;13243;50.888;4.724;2024-03-08T05:40:50;44.85;;;27.13;;
25301;SDS011;13243;50.888;4.724;2024-03-08T05:45:52;40.42;;;25.92;;
25301;SDS011;13243;50.888;4.724;2024-03-08T05:50:54;45.95;;;26.13;;
25301;SDS011;13243;50.888;4.724;2024-03-08T05:55:58;45.25;;;26.55;;
25301;SDS011;13243;50.888;4.724;2024-03-08T06:01:00;45.63;;;25.30;;
25301;SDS011;13243;50.888;4.724;2024-03-08T06:06:02;41.30;;;25.85;;
25301;SDS011;13243;50.888;4.724;2024-03-08T06:11:05;51.85;;;27.67;;
25301;SDS011;13243;50.888;4.724;2024-03-08T06:16:09;42.90;;;25.77;;
25301;SDS011;13243;50.888;4.724;2024-03-08T06:21:12;45.67;;;26.02;;
25301;SDS011;13243;50.888;4.724;2024-03-08T06:26:14;45.65;;;27.50;;
25301;SDS011;13243;50.888;4.724;2024-03-08T06:31:16;44.60;;;26.23;;
25301;SDS011;13243;50.888;4.724;2024-03-08T06:36:18;48.30;;;27.10;;
25301;SDS011;13243;50.888;4.724;2024-03-08T06:41:23;46.95;;;26.02;;
25301;SDS011;13243;50.888;4.724;2024-03-08T06:46:25;43.13;;;25.92;;
25301;SDS011;13243;50.888;4.724;2024-03-08T06:51:28;44.13;;;26.83;;
25301;SDS011;13243;50.888;4.724;2024-03-08T06:56:30;44.00;;;25.65;;
25301;SDS011;13243;50.888;4.724;2024-03-08T07:01:32;44.40;;;26.80;;
25301;SDS011;13243;50.888;4.724;2024-03-08T07:06:36;42.13;;;24.85;;
25301;SDS011;13243;50.888;4.724;2024-03-08T07:11:38;45.33;;;25.75;;
25301;SDS011;13243;50.888;4.724;2024-03-08T07:16:43;44.38;;;25.92;;
25301;SDS011;13243;50.888;4.724;2024-03-08T07:21:46;47.58;;;27.10;;
25301;SDS011;13243;50.888;4.724;2024-03-08T07:26:48;44.60;;;25.05;;
25301;SDS011;13243;50.888;4.724;2024-03-08T07:31:53;48.83;;;25.00;;
25301;SDS011;13243;50.888;4.724;2024-03-08T07:37:04;42.05;;;24.25;;
25301;SDS011;13243;50.888;4.724;2024-03-08T07:42:08;42.35;;;24.60;;
25301;SDS011;13243;50.888;4.724;2024-03-08T07:47:11;40.88;;;23.15;;
25301;SDS011;13243;50.888;4.724;2024-03-08T07:52:13;40.92;;;23.95;;
25301;SDS011;13243;50.888;4.724;2024-03-08T07:57:16;42.17;;;23.95;;
25301;SDS011;13243;50.888;4.724;2024-03-08T08:02:19;43.42;;;23.95;;
25301;SDS011;13243;50.888;4.724;2024-03-08T08:07:21;42.90;;;23.33;;
25301;SDS011;13243;50.888;4.724;2024-03-08T08:12:24;39.00;;;23.17;;
25301;SDS011;13243;50.888;4.724;2024-03-08T08:17:26;39.10;;;22.92;;
25301;SDS011;13243;50.888;4.724;2024-03-08T08:22:28;39.97;;;22.23;;
25301;SDS011;13243;50.888;4.724;2024-03-08T08:27:30;40.70;;;23.50;;
25301;SDS011;13243;50.888;4.724;2024-03-08T08:32:32;41.03;;;23.92;;
25301;SDS011;13243;50.888;4.724;2024-03-08T08:37:35;35.50;;;21.52;;
25301;SDS011;13243;50.888;4.724;2024-03-08T08:42:40;38.10;;;21.63;;
25301;SDS011;13243;50.888;4.724;2024-03-08T08:47:42;36.63;;;21.95;;
25301;SDS011;13243;50.888;4.724;2024-03-08T08:52:47;35.05;;;22.15;;
25301;SDS011;13243;50.888;4.724;2024-03-08T08:57:48;38.63;;;22.13;;
25301;SDS011;13243;50.888;4.724;2024-03-08T09:02:52;33.45;;;20.17;;
25301;SDS011;13243;50.888;4.724;2024-03-08T09:07:56;38.13;;;20.60;;
25301;SDS011;13243;50.888;4.724;2024-03-08T09:12:59;32.20;;;21.58;;
25301;SDS011;13243;50.888;4.724;2024-03-08T09:18:01;33.25;;;19.23;;
25301;SDS011;13243;50.888;4.724;2024-03-08T09:23:03;34.78;;;20.05;;
25301;SDS011;13243;50.888;4.724;2024-03-08T09:28:05;29.77;;;18.95;;
25301;SDS011;13243;50.888;4.724;2024-03-08T09:33:07;32.53;;;20.00;;
25301;SDS011;13243;50.888;4.724;2024-03-08T09:38:11;28.98;;;19.08;;
25301;SDS011;13243;50.888;4.724;2024-03-08T09:43:14;30.60;;;18.85;;
25301;SDS011;13243;50.888;4.724;2024-03-08T09:48:16;29.98;;;18.58;;
25301;SDS011;13243;50.888;4.724;2024-03-08T09:53:20;29.67;;;18.50;;
25301;SDS011;13243;50.888;4.724;2024-03-08T09:58:23;28.40;;;17.80;;
25301;SDS011;13243;50.888;4.724;2024-03-08T10:03:34;28.63;;;18.30;;
25301;SDS011;13243;50.888;4.724;2024-03-08T10:08:36;32.35;;;18.52;;
25301;SDS011;13243;50.888;4.724;2024-03-08T10:13:38;33.05;;;17.42;;
25301;SDS011;13243;50.888;4.724;2024-03-08T10:18:41;26.52;;;17.60;;
25301;SDS011;13243;50.888;4.724;2024-03-08T10:23:44;27.08;;;16.20;;
25301;SDS011;13243;50.888;4.724;2024-03-08T10:28:47;28.80;;;17.60;;
25301;SDS011;13243;50.888;4.724;2024-03-08T10:33:50;31.75;;;17.60;;
25301;SDS011;13243;50.888;4.724;2024-03-08T10:38:52;27.67;;;17.15;;
25301;SDS011;13243;50.888;4.724;2024-03-08T10:49:22;28.45;;;17.67;;
25301;SDS011;13243;50.888;4.724;2024-03-08T10:54:31;29.25;;;17.30;;
25301;SDS011;13243;50.888;4.724;2024-03-08T10:59:45;27.88;;;17.60;;
25301;SDS011;13243;50.888;4.724;2024-03-08T11:04:51;25.38;;;16.13;;
25301;SDS011;13243;50.888;4.724;2024-03-08T11:09:54;24.30;;;17.02;;
25301;SDS011;13243;50.888;4.724;2024-03-08T11:15:16;25.48;;;16.77;;
25301;SDS011;13243;50.888;4.724;2024-03-08T11:20:20;26.80;;;16.48;;
25301;SDS011;13243;50.888;4.724;2024-03-08T11:30:39;23.77;;;15.70;;
25301;SDS011;13243;50.888;4.724;2024-03-08T11:35:41;28.35;;;17.42;;
25301;SDS011;13243;50.888;4.724;2024-03-08T11:40:47;25.50;;;15.85;;
25301;SDS011;13243;50.888;4.724;2024-03-08T11:45:51;25.38;;;15.82;;
25301;SDS011;13243;50.888;4.724;2024-03-08T11:51:11;22.35;;;15.88;;
25301;SDS011;13243;50.888;4.724;2024-03-08T11:56:13;24.40;;;16.42;;
25301;SDS011;13243;50.888;4.724;2024-03-08T12:01:16;25.00;;;16.35;;
25301;SDS011;13243;50.888;4.724;2024-03-08T12:06:18;24.30;;;16.60;;
25301;SDS011;13243;50.888;4.724;2024-03-08T12:11:20;23.40;;;16.35;;
25301;SDS011;13243;50.888;4.724;2024-03-08T12:16:25;24.05;;;17.10;;
25301;SDS011;13243;50.888;4.724;2024-03-08T12:21:27;22.90;;;15.60;;
25301;SDS011;13243;50.888;4.724;2024-03-08T12:26:30;22.02;;;16.02;;
25301;SDS011;13243;50.888;4.724;2024-03-08T12:31:33;25.42;;;15.45;;
25301;SDS011;13243;50.888;4.724;2024-03-08T12:36:37;24.20;;;16.58;;
25301;SDS011;13243;50.888;4.724;2024-03-08T12:41:39;20.42;;;15.30;;
25301;SDS011;13243;50.888;4.724;2024-03-08T12:46:43;26.48;;;16.77;;
25301;SDS011;13243;50.888;4.724;2024-03-08T12:51:46;30.27;;;16.73;;
25301;SDS011;13243;50.888;4.724;2024-03-08T12:56:48;23.88;;;15.20;;
25301;SDS011;13243;50.888;4.724;2024-03-08T13:01:51;22.65;;;15.65;;
25301;SDS011;13243;50.888;4.724;2024-03-08T13:06:55;29.98;;;17.17;;
25301;SDS011;13243;50.888;4.724;2024-03-08T13:11:57;24.25;;;16.40;;
25301;SDS011;13243;50.888;4.724;2024-03-08T13:17:02;22.00;;;15.23;;
25301;SDS011;13243;50.888;4.724;2024-03-08T13:22:05;24.13;;;16.15;;
25301;SDS011;13243;50.888;4.724;2024-03-08T13:27:08;19.98;;;14.95;;
25301;SDS011;13243;50.888;4.724;2024-03-08T13:32:23;26.17;;;16.27;;
25301;SDS011;13243;50.888;4.724;2024-03-08T13:37:26;21.27;;;15.38;;
25301;SDS011;13243;50.888;4.724;2024-03-08T13:42:28;19.90;;;14.68;;
25301;SDS011;13243;50.888;4.724;2024-03-08T13:47:30;23.48;;;15.45;;
25301;SDS011;13243;50.888;4.724;2024-03-08T13:52:33;20.20;;;14.80;;
25301;SDS011;13243;50.888;4.724;2024-03-08T13:57:35;19.90;;;14.40;;
25301;SDS011;13243;50.888;4.724;2024-03-08T14:02:37;24.08;;;15.88;;
25301;SDS011;13243;50.888;4.724;2024-03-08T14:07:42;21.35;;;13.93;;
25301;SDS011;13243;50.888;4.724;2024-03-08T14:12:43;22.33;;;14.52;;
25301;SDS011;13243;50.888;4.724;2024-03-08T14:17:51;21.17;;;14.43;;
25301;SDS011;13243;50.888;4.724;2024-03-08T14:22:54;19.45;;;14.20;;
25301;SDS011;13243;50.888;4.724;2024-03-08T14:27:57;20.52;;;14.70;;
25301;SDS011;13243;50.888;4.724;2024-03-08T14:33:03;21.15;;;14.65;;
25301;SDS011;13243;50.888;4.724;2024-03-08T14:38:10;21.92;;;14.00;;
25301;SDS011;13243;50.888;4.724;2024-03-08T14:43:14;21.77;;;14.43;;
25301;SDS011;13243;50.888;4.724;2024-03-08T14:48:17;19.88;;;14.10;;
25301;SDS011;13243;50.888;4.724;2024-03-08T14:53:19;24.08;;;14.77;;
25301;SDS011;13243;50.888;4.724;2024-03-08T14:58:21;20.50;;;15.05;;
25301;SDS011;13243;50.888;4.724;2024-03-08T15:03:26;19.13;;;13.38;;
25301;SDS011;13243;50.888;4.724;2024-03-08T15:08:28;17.38;;;13.57;;
25301;SDS011;13243;50.888;4.724;2024-03-08T15:13:30;19.80;;;14.27;;
25301;SDS011;13243;50.888;4.724;2024-03-08T15:18:43;19.60;;;14.30;;
25301;SDS011;13243;50.888;4.724;2024-03-08T15:23:52;22.30;;;14.85;;
25301;SDS011;13243;50.888;4.724;2024-03-08T15:28:56;19.50;;;13.85;;
25301;SDS011;13243;50.888;4.724;2024-03-08T15:33:58;19.77;;;13.55;;
25301;SDS011;13243;50.888;4.724;2024-03-08T15:39:02;21.92;;;13.68;;
25301;SDS011;13243;50.888;4.724;2024-03-08T15:44:04;23.60;;;14.30;;
25301;SDS011;13243;50.888;4.724;2024-03-08T15:49:06;17.60;;;14.02;;
25301;SDS011;13243;50.888;4.724;2024-03-08T15:54:10;20.73;;;13.65;;
25301;SDS011;13243;50.888;4.724;2024-03-08T15:59:12;20.27;;;13.85;;
25301;SDS011;13243;50.888;4.724;2024-03-08T16:04:14;23.88;;;13.82;;
25301;SDS011;13243;50.888;4.724;2024-03-08T16:09:16;16.23;;;12.50;;
25301;SDS011;13243;50.888;4.724;2024-03-08T16:14:18;19.90;;;13.43;;
25301;SDS011;13243;50.888;4.724;2024-03-08T16:19:21;18.80;;;12.85;;
25301;SDS011;13243;50.888;4.724;2024-03-08T16:24:24;17.65;;;12.63;;
25301;SDS011;13243;50.888;4.724;2024-03-08T16:29:26;19.13;;;13.18;;
25301;SDS011;13243;50.888;4.724;2024-03-08T16:34:28;19.98;;;13.50;;
25301;SDS011;13243;50.888;4.724;2024-03-08T16:39:30;17.73;;;12.63;;
25301;SDS011;13243;50.888;4.724;2024-03-08T16:44:32;21.30;;;11.90;;
25301;SDS011;13243;50.888;4.724;2024-03-08T16:49:34;19.45;;;12.13;;
25301;SDS011;13243;50.888;4.724;2024-03-08T16:54:36;18.05;;;13.10;;
25301;SDS011;13243;50.888;4.724;2024-03-08T16:59:52;17.50;;;11.82;;
25301;SDS011;13243;50.888;4.724;2024-03-08T17:04:54;24.02;;;12.55;;
25301;SDS011;13243;50.888;4.724;2024-03-08T17:09:56;19.40;;;12.27;;
25301;SDS011;13243;50.888;4.724;2024-03-08T17:14:59;18.73;;;13.05;;
25301;SDS011;13243;50.888;4.724;2024-03-08T17:20:03;19.77;;;12.55;;
25301;SDS011;13243;50.888;4.724;2024-03-08T17:25:12;18.10;;;13.00;;
25301;SDS011;13243;50.888;4.724;2024-03-08T17:30:16;18.88;;;12.82;;
25301;SDS011;13243;50.888;4.724;2024-03-08T17:35:28;23.52;;;13.73;;
25301;SDS011;13243;50.888;4.724;2024-03-08T17:40:33;23.42;;;13.32;;
25301;SDS011;13243;50.888;4.724;2024-03-08T17:45:39;32.10;;;21.10;;
25301;SDS011;13243;50.888;4.724;2024-03-08T17:50:44;20.52;;;13.60;;
25301;SDS011;13243;50.888;4.724;2024-03-08T17:55:51;23.02;;;14.02;;
25301;SDS011;13243;50.888;4.724;2024-03-08T18:00:55;21.63;;;13.18;;
25301;SDS011;13243;50.888;4.724;2024-03-08T18:05:57;21.52;;;13.93;;
25301;SDS011;13243;50.888;4.724;2024-03-08T18:10:59;22.83;;;13.75;;
25301;SDS011;13243;50.888;4.724;2024-03-08T18:16:01;25.02;;;15.40;;
25301;SDS011;13243;50.888;4.724;2024-03-08T18:21:04;24.40;;;14.95;;
25301;SDS011;13243;50.888;4.724;2024-03-08T18:26:07;24.48;;;15.25;;
25301;SDS011;13243;50.888;4.724;2024-03-08T18:31:09;20.20;;;13.85;;
25301;SDS011;13243;50.888;4.724;2024-03-08T18:36:11;25.85;;;14.68;;
25301;SDS011;13243;50.888;4.724;2024-03-08T18:41:13;24.65;;;14.38;;
25301;SDS011;13243;50.888;4.724;2024-03-08T18:46:15;26.60;;;15.63;;
25301;SDS011;13243;50.888;4.724;2024-03-08T18:51:17;25.20;;;15.48;;
25301;SDS011;13243;50.888;4.724;2024-03-08T18:56:19;25.48;;;15.20;;
25301;SDS011;13243;50.888;4.724;2024-03-08T19:01:21;25.85;;;16.42;;
25301;SDS011;13243;50.888;4.724;2024-03-08T19:06:27;24.27;;;15.18;;
25301;SDS011;13243;50.888;4.724;2024-03-08T19:11:32;25.30;;;15.32;;
25301;SDS011;13243;50.888;4.724;2024-03-08T19:16:34;24.80;;;16.15;;
25301;SDS011;13243;50.888;4.724;2024-03-08T19:21:42;26.88;;;15.70;;
25301;SDS011;13243;50.888;4.724;2024-03-08T19:26:46;25.27;;;16.45;;
25301;SDS011;13243;50.888;4.724;2024-03-08T19:31:50;25.48;;;15.95;;
25301;SDS011;13243;50.888;4.724;2024-03-08T19:36:52;22.25;;;15.27;;
25301;SDS011;13243;50.888;4.724;2024-03-08T19:41:54;26.65;;;15.93;;
25301;SDS011;13243;50.888;4.724;2024-03-08T19:46:57;27.60;;;16.45;;
25301;SDS011;13243;50.888;4.724;2024-03-08T19:51:59;24.58;;;16.13;;
25301;SDS011;13243;50.888;4.724;2024-03-08T19:57:01;24.65;;;16.00;;
25301;SDS011;13243;50.888;4.724;2024-03-08T20:02:08;26.75;;;16.15;;
25301;SDS011;13243;50.888;4.724;2024-03-08T20:07:10;28.02;;;16.58;;
25301;SDS011;13243;50.888;4.724;2024-03-08T20:12:14;26.92;;;16.65;;
25301;SDS011;13243;50.888;4.724;2024-03-08T20:17:17;27.75;;;15.93;;
25301;SDS011;13243;50.888;4.724;2024-03-08T20:22:19;27.77;;;16.50;;
25301;SDS011;13243;50.888;4.724;2024-03-08T20:27:23;31.17;;;18.08;;
25301;SDS011;13243;50.888;4.724;2024-03-08T20:32:28;28.85;;;15.90;;
25301;SDS011;13243;50.888;4.724;2024-03-08T20:37:30;28.33;;;16.60;;
25301;SDS011;13243;50.888;4.724;2024-03-08T20:42:32;25.00;;;17.08;;
25301;SDS011;13243;50.888;4.724;2024-03-08T20:47:34;26.70;;;16.77;;
25301;SDS011;13243;50.888;4.724;2024-03-08T20:52:42;29.70;;;16.30;;
25301;SDS011;13243;50.888;4.724;2024-03-08T20:57:44;27.40;;;17.45;;
25301;SDS011;13243;50.888;4.724;2024-03-08T21:02:47;27.08;;;17.35;;
25301;SDS011;13243;50.888;4.724;2024-03-08T21:07:49;27.52;;;16.73;;
25301;SDS011;13243;50.888;4.724;2024-03-08T21:12:52;29.95;;;17.30;;
25301;SDS011;13243;50.888;4.724;2024-03-08T21:17:56;30.38;;;16.90;;
25301;SDS011;13243;50.888;4.724;2024-03-08T21:22:59;25.65;;;17.02;;
25301;SDS011;13243;50.888;4.724;2024-03-08T21:28:01;29.02;;;17.02;;
25301;SDS011;13243;50.888;4.724;2024-03-08T21:33:08;25.80;;;16.90;;
25301;SDS011;13243;50.888;4.724;2024-03-08T21:38:13;29.63;;;17.02;;
25301;SDS011;13243;50.888;4.724;2024-03-08T21:43:16;28.70;;;17.13;;
25301;SDS011;13243;50.888;4.724;2024-03-08T21:48:17;26.20;;;16.25;;
25301;SDS011;13243;50.888;4.724;2024-03-08T21:53:19;26.60;;;17.00;;
25301;SDS011;13243;50.888;4.724;2024-03-08T21:58:33;27.33;;;16.92;;
25301;SDS011;13243;50.888;4.724;2024-03-08T22:03:36;29.55;;;17.85;;
25301;SDS011;13243;50.888;4.724;2024-03-08T22:08:38;28.58;;;18.95;;
25301;SDS011;13243;50.888;4.724;2024-03-08T22:13:43;31.60;;;18.73;;
25301;SDS011;13243;50.888;4.724;2024-03-08T22:18:49;30.83;;;19.27;;
25301;SDS011;13243;50.888;4.724;2024-03-08T22:23:51;29.35;;;18.58;;
25301;SDS011;13243;50.888;4.724;2024-03-08T22:28:53;30.85;;;19.23;;
25301;SDS011;13243;50.888;4.724;2024-03-08T22:33:55;32.70;;;18.77;;
25301;SDS011;13243;50.888;4.724;2024-03-08T22:38:57;33.75;;;18.33;;
25301;SDS011;13243;50.888;4.724;2024-03-08T22:43:59;29.23;;;18.05;;
25301;SDS011;13243;50.888;4.724;2024-03-08T22:49:01;30.35;;;20.05;;
25301;SDS011;13243;50.888;4.724;2024-03-08T22:54:04;32.10;;;19.02;;
25301;SDS011;13243;50.888;4.724;2024-03-08T22:59:06;29.60;;;18.20;;
25301;SDS011;13243;50.888;4.724;2024-03-08T23:04:09;33.00;;;19.73;;
25301;SDS011;13243;50.888;4.724;2024-03-08T23:09:13;33.97;;;18.95;;
25301;SDS011;13243;50.888;4.724;2024-03-08T23:14:15;30.95;;;18.77;;
25301;SDS011;13243;50.888;4.724;2024-03-08T23:19:17;31.95;;;19.23;;
25301;SDS011;13243;50.888;4.724;2024-03-08T23:24:18;35.40;;;19.52;;
25301;SDS011;13243;50.888;4.724;2024-03-08T23:29:20;31.38;;;19.50;;
25301;SDS011;13243;50.888;4.724;2024-03-08T23:34:22;28.10;;;18.45;;
25301;SDS011;13243;50.888;4.724;2024-03-08T23:39:25;34.20;;;19.77;;
25301;SDS011;13243;50.888;4.724;2024-03-08T23:44:27;34.40;;;19.90;;
25301;SDS011;13243;50.888;4.724;2024-03-08T23:49:30;29.25;;;19.52;;
25301;SDS011;13243;50.888;4.724;2024-03-08T23:54:33;32.33;;;19.77;;
25301;SDS011;13243;50.888;4.724;2024-03-08T23:59:35;35.38;;;19.88;;
